Nearby METAR Reports

 

KUCP - New Castle Muni, Pennsylvania, USA
Distance from station: ENE 8mi, 13km
Updated: Sat, 05-Dec-2020 8:56pm EST
Overcast
Overcast
 Wind from NNW
Wind: NNW 8 mph , 13 km/h
Temperature: 34°F , 1°C
Wind Chill: 27°F , -3°C
Dew Point: 25°F , -4°C
Humidity: 70%
Barometer: 30.05 inHg , 1017.6 hPa
Clouds: Overcast
Visibility: 10 miles , 16 km
Cloud details: Overcast 2500 ft
2020/12/06 01:56 KUCP 060156Z AUTO 33007KT 10SM OVC025 01/M04 A3005 RMK AO2 SLP201 T00061039 PWINO FZRANO $
KBVI - Beaver Falls Arp, Pennsylvania, USA
Distance from station: SSE 16mi, 26km
Updated: Sat, 05-Dec-2020 8:55pm EST
Overcast
Overcast
 Wind from NW
Wind: NW 9 mph , 15 km/h
Temperature: 34°F , 1°C
Wind Chill: 27°F , -3°C
Dew Point: 27°F , -3°C
Humidity: 75%
Barometer: 30.03 inHg , 1016.9 hPa
Clouds: Overcast
Visibility: 10 miles , 16 km
Cloud details: Mostly cloudy 2800 ft
Overcast 3600 ft
2020/12/06 01:55 KBVI 060155Z AUTO 32008KT 10SM BKN028 OVC036 01/M03 A3003 RMK AO2 T00061029
 
KYNG - Youngstown, Ohio, USA
Distance from station: NNW 20mi, 33km
Updated: Sat, 05-Dec-2020 8:51pm EST
Overcast
Overcast
 Wind from NW
Wind: NW 13 mph , 20 km/h
Temperature: 32°F , 0°C
Wind Chill: 22°F , -6°C
Dew Point: 25°F , -4°C
Humidity: 75%
Barometer: 30.04 inHg , 1017.3 hPa
Clouds: Overcast
Visibility: 10 miles , 16 km
Cloud details: Few Clouds 1900 ft
Overcast 2500 ft
2020/12/06 01:51 KYNG 060151Z 32011KT 10SM FEW019 OVC025 00/M04 A3004 RMK AO2 SNE02 SLP182 P0000 T00001044 $
KBTP - Butler Co., Pennsylvania, USA
Distance from station: ESE 34mi, 55km
Updated: Sat, 05-Dec-2020 8:56pm EST
Overcast
Overcast
 Wind from NW
Wind: NW 6 mph , 9 km/h
Temperature: 32°F , 0°C
Wind Chill: 26°F , -3°C
Dew Point: 28°F , -2°C
Humidity: 87%
Barometer: 30.02 inHg , 1016.6 hPa
Clouds: Overcast
Visibility: 10 miles , 16 km
Cloud details: Mostly cloudy 2000 ft
Overcast 2800 ft
2020/12/06 01:56 KBTP 060156Z AUTO 32005KT 10SM BKN020 OVC028 00/M02 A3002 RMK AO2 UPB00E13 SLP184 P0000 T00001022 FZRANO
 
KPIT - Pittsburgh, Pennsylvania, USA
Distance from station: SSE 36mi, 57km
Updated: Sat, 05-Dec-2020 8:51pm EST
Overcast
Overcast
 Wind from NW
Wind: NW 8 mph , 13 km/h
Temperature: 34°F , 1°C
Wind Chill: 27°F , -3°C
Dew Point: 28°F , -2°C
Humidity: 81%
Barometer: 30.02 inHg , 1016.6 hPa
Clouds: Overcast
Visibility: 10 miles , 16 km
Cloud details: Mostly cloudy 1800 ft
Mostly cloudy 2300 ft
Overcast 3700 ft
2020/12/06 01:51 KPIT 060151Z 31007KT 10SM BKN018 BKN023 OVC037 01/M02 A3002 RMK AO2 SLP183 T00061017 $
KPOV - Ravena/Portage, Ohio, USA
Distance from station: WNW 40mi, 65km
Updated: Sun, 15-Nov-2020 1:35pm EST
NOT Current
Overcast
Overcast
 Wind from SSW
Wind: SSW 9 mph , 15 km/h, Gust: 24 mph , 39 km/h
Temperature: 55°F , 13°C
Dew Point: 48°F , 9°C
Humidity: 77%
Barometer: 29.45 inHg , 997.3 hPa
Clouds: Overcast
Visibility: 10 miles , 16 km
Cloud details: Overcast 1900 ft
2020/11/15 18:35 KPOV 151835Z AUTO 20008G21KT 160V240 10SM OVC019 13/09 A2945 RMK AO2 T01320088 PWINO
 
KFKL - Franklin, Pennsylvania, USA
Distance from station: NE 45mi, 72km
Updated: Sat, 05-Dec-2020 8:56pm EST
Light snow, Mist, Overcast
Light snow, Mist, Overcast
 Wind from NNW
Wind: NNW 8 mph , 13 km/h
Temperature: 28°F , -2°C
Wind Chill: 20°F , -7°C
Dew Point: 27°F , -3°C
Humidity: 93%
Barometer: 30.00 inHg , 1015.9 hPa
Summary: Light snow, Mist
Clouds: Overcast
Visibility: 4 miles , 6 km
Cloud details: Mostly cloudy 1100 ft
Overcast 1500 ft
2020/12/06 01:56 KFKL 060156Z AUTO 34007KT 4SM -SN BR BKN011 OVC015 M02/M03 A3000 RMK AO2 UPB39E48SNE39B48 CIG 008V012 SLP176 P0000 T10171033 FZRANO
KCAK - Akron, Ohio, USA
Distance from station: W 47mi, 76km
Updated: Sat, 05-Dec-2020 8:51pm EST
Overcast
Overcast
 Wind from NNW
Wind: NNW 10 mph , 17 km/h
Temperature: 34°F , 1°C
Wind Chill: 26°F , -3°C
Dew Point: 27°F , -3°C
Humidity: 75%
Barometer: 30.06 inHg , 1017.9 hPa
Clouds: Overcast
Visibility: 10 miles , 16 km
Cloud details: Partly cloudy 1700 ft
Overcast 2500 ft
2020/12/06 01:51 KCAK 060151Z 34009KT 10SM SCT017 OVC025 01/M03 A3006 RMK AO2 SLP190 T00061028 $
 
KAKR - Akron (fulton), Ohio, USA
Distance from station: W 48mi, 77km
Updated: Sat, 05-Dec-2020 8:54pm EST
Overcast
Overcast
 Wind from NNW
Wind: NNW 10 mph , 17 km/h
Temperature: 36°F , 2°C
Wind Chill: 29°F , -2°C
Dew Point: 27°F , -3°C
Humidity: 70%
Barometer: 30.06 inHg , 1017.9 hPa
Clouds: Overcast
Visibility: 10 miles , 16 km
Cloud details: Partly cloudy 2300 ft
Overcast 3200 ft
2020/12/06 01:54 KAKR 060154Z AUTO 33009KT 10SM SCT023 OVC032 02/M03 A3006 RMK AO2 SLP188 T00171033
KGKJ - Meadville, Pennsylvania, USA
Distance from station: NNE 49mi, 79km
Updated: Sat, 05-Dec-2020 8:53pm EST
Overcast
Overcast
 Wind from N
Wind: N 7 mph , 11 km/h
Temperature: 28°F , -2°C
Wind Chill: 21°F , -6°C
Dew Point: 25°F , -4°C
Humidity: 86%
Barometer: 30.01 inHg , 1016.3 hPa
Clouds: Overcast
Visibility: 9 miles , 14 km
Cloud details: Overcast 1400 ft
2020/12/06 01:53 KGKJ 060153Z AUTO 36006KT 9SM OVC014 M02/M04 A3001 RMK AO2 SLP174 T10171039